N5XP Weather Reports


Display with metric or nautical units.
time (UTC)temp
F
wind
direction
speed
MPH
gust
MPH
rain 1hr
in
rain 24hr
in
rain mn
in
humidity
%
barometer
mb
20190321075318 41 11 0.0 1.0 0.00 0.00 0.00 94 1024.2
20190321074250 41 347 1.0 1.0 0.00 0.00 0.00 94 1024.4
20190321073327 41 347 1.0 2.0 0.00 0.00 0.00 94 1024.3
20190321072308 42 347 0.0 2.0 0.00 0.00 0.00 94 1024.5
20190321071345 41 26 1.0 2.0 0.00 0.00 0.00 94 1024.6
20190321070524 42 26 0.0 2.0 0.00 0.00 0.00 94 1024.6
20190321070253 42 26 1.0 2.0 0.00 0.00 0.00 94 1024.6
20190321065256 42 26 1.0 2.0 0.00 0.00 0.00 94 1024.5
20190321064252 42 26 1.0 2.0 0.00 0.00 0.00 93 1024.6
20190321063251 42 26 2.0 2.0 0.00 0.00 0.00 93 1024.5
20190321062252 43 355 1.0 2.0 0.00 0.00 0.00 93 1024.6
20190321061251 43 355 1.0 2.0 0.00 0.00 0.00 93 1024.5
20190321060452 44 293 0.0 1.0 0.00 0.00 0.00 93 1024.8
20190321060300 44 293 0.0 1.0 0.00 0.00 0.00 93 1024.8
20190321055257 44 293 0.0 1.0 0.00 0.00 0.00 93 1024.9
20190321054259 44 355 1.0 2.0 0.00 0.00 0.00 92 1024.9
20190321053257 45 355 1.0 2.0 0.00 0.00 0.00 92 1024.9
20190321052254 45 350 1.0 2.0 0.00 0.00 0.00 92 1025.0
20190321051255 45 348 1.0 2.0 0.00 0.00 0.00 91 1025.1
20190321050450 46 328 1.0 2.0 0.00 0.00 0.00 91 1025.0
20190321050304 46 309 1.0 2.0 0.00 0.00 0.00 91 1025.1
20190321045300 46 309 1.0 1.0 0.00 0.00 0.00 91 1025.1
20190321044336 47 355 1.0 2.0 0.00 0.00 0.00 91 1025.2
20190321043316 47 355 1.0 2.0 0.00 0.00 0.00 90 1025.1
20190321042252 48 305 0.0 2.0 0.00 0.00 0.00 90 1025.2
20190321041322 48 333 0.0 1.0 0.00 0.00 0.00 90 1025.2
20190321040500 49 321 1.0 2.0 0.00 0.00 0.00 89 1025.2
20190321040326 49 321 1.0 2.0 0.00 0.00 0.00 88 1025.0
20190321035258 49 306 1.0 1.0 0.00 0.00 0.00 89 1025.1
20190321034334 50 360 1.0 1.0 0.00 0.00 0.00 87 1025.0
20190321033303 51 360 0.0 2.0 0.00 0.00 0.00 87 1024.9
20190321032339 51 348 0.0 1.0 0.00 0.00 0.00 85 1024.9
20190321031309 52 319 0.0 1.0 0.00 0.00 0.00 84 1024.8
20190321030547 52 293 0.0 1.0 0.00 0.00 0.00 84 1024.7
20190321030312 53 288 1.0 1.0 0.00 0.00 0.00 83 1024.7
20190321025339 53 347 1.0 2.0 0.00 0.00 0.00 82 1024.6
20190321024256 54 355 1.0 3.0 0.00 0.00 0.00 81 1024.5
20190321023325 54 10 1.0 3.0 0.00 0.00 0.00 81 1024.3
20190321022254 54 5 2.0 3.0 0.00 0.00 0.00 81 1024.2
20190321021321 55 5 1.0 2.0 0.00 0.00 0.00 79 1024.1
20190321020459 56 340 1.0 2.0 0.00 0.00 0.00 77 1024.1
20190321020325 56 9 1.0 2.0 0.00 0.00 0.00 77 1024.0
20190321015254 57 9 2.0 3.0 0.00 0.00 0.00 76 1024.0
20190321014329 57 5 2.0 4.0 0.00 0.00 0.00 75 1023.9
20190321013305 58 20 2.0 4.0 0.00 0.00 0.00 74 1023.8
20190321012300 59 34 3.0 5.0 0.00 0.00 0.00 72 1023.7
20190321011327 60 318 3.0 5.0 0.00 0.00 0.00 68 1023.4
20190321010502 60 309 4.0 5.0 0.00 0.00 0.00 68 1023.4
20190321010330 60 312 3.0 5.0 0.00 0.00 0.00 67 1023.4
20190321005306 61 317 3.0 4.0 0.00 0.00 0.00 67 1023.3
20190321004337 61 305 3.0 6.0 0.00 0.00 0.00 66 1023.2
20190321003312 62 310 4.0 5.0 0.00 0.00 0.00 66 1023.0
20190321002252 62 329 4.0 5.0 0.00 0.00 0.00 65 1022.8
20190321001324 63 335 2.0 5.0 0.00 0.00 0.00 64 1022.6
20190321000503 62 309 4.0 9.0 0.00 0.00 0.00 65 1022.9
20190321000329 62 314 4.0 9.0 0.00 0.00 0.00 65 1022.9
20190320235252 63 315 7.0 10.0 0.00 0.00 0.00 64 1022.8
20190320234326 63 312 6.0 10.0 0.00 0.00 0.00 63 1022.8
20190320233305 63 19 5.0 12.0 0.00 0.00 0.00 63 1022.7
20190320232320 63 317 11.0 15.0 0.00 0.00 0.00 63 1022.8
20190320231252 64 326 10.0 16.0 0.00 0.00 0.00 63 1022.8
20190320230531 64 344 10.0 15.0 0.00 0.00 0.00 65 1022.8
20190320230303 64 308 9.0 16.0 0.00 0.00 0.00 65 1022.8
20190320225337 65 338 10.0 16.0 0.00 0.00 0.00 65 1022.8
20190320224309 64 338 9.0 14.0 0.00 0.00 0.00 64 1022.7
20190320223337 65 318 11.0 18.0 0.00 0.00 0.00 63 1022.5
20190320222312 65 304 13.0 17.0 0.00 0.00 0.00 62 1022.7
20190320221259 66 315 9.0 15.0 0.00 0.00 0.00 58 1022.5
20190320220538 67 277 6.0 13.0 0.00 0.00 0.00 56 1022.7
20190320220300 67 288 8.0 14.0 0.00 0.00 0.00 55 1022.7
20190320215329 66 296 14.0 20.0 0.00 0.00 0.00 55 1022.7
20190320214301 67 294 12.0 16.0 0.00 0.00 0.00 53 1022.6
20190320213332 68 315 12.0 23.0 0.00 0.00 0.00 52 1022.4
20190320212303 69 312 12.0 21.0 0.00 0.00 0.00 49 1022.3
20190320211322 70 298 13.0 22.0 0.00 0.00 0.00 45 1022.3
20190320210502 70 299 12.0 19.0 0.00 0.00 0.00 44 1022.1
20190320210328 70 330 13.0 19.0 0.00 0.00 0.00 44 1022.1
20190320205303 72 260 13.0 20.0 0.00 0.00 0.00 41 1022.0
20190320204337 71 246 15.0 20.0 0.00 0.00 0.00 38 1022.0
20190320203314 71 283 10.0 17.0 0.00 0.00 0.00 38 1022.1
20190320202249 71 248 10.0 20.0 0.00 0.00 0.00 39 1022.2
20190320201322 72 303 10.0 19.0 0.00 0.00 0.00 38 1022.5
20190320200501 71 250 12.0 19.0 0.00 0.00 0.00 39 1022.5
20190320200332 71 240 13.0 19.0 0.00 0.00 0.00 40 1022.6
20190320195307 70 259 11.0 19.0 0.00 0.00 0.00 39 1023.0
20190320194325 71 281 8.0 15.0 0.00 0.00 0.00 37 1023.0
20190320193303 70 267 12.0 16.0 0.00 0.00 0.00 38 1023.4
20190320192341 70 260 9.0 20.0 0.00 0.00 0.00 35 1023.5
20190320191310 70 300 6.0 18.0 0.00 0.00 0.00 38 1023.4
20190320190450 70 269 12.0 20.0 0.00 0.00 0.00 35 1023.7
20190320190313 70 283 11.0 20.0 0.00 0.00 0.00 37 1023.8
20190320185255 71 257 13.0 23.0 0.00 0.00 0.00 39 1023.8
20190320184328 69 209 9.0 15.0 0.00 0.00 0.00 38 1024.3
20190320183305 69 308 11.0 19.0 0.00 0.00 0.00 40 1024.0
20190320182322 69 271 10.0 12.0 0.00 0.00 0.00 42 1024.4
20190320181300 69 265 11.0 16.0 0.00 0.00 0.00 42 1024.4
20190320180540 68 240 12.0 17.0 0.00 0.00 0.00 40 1024.6
20190320180307 69 243 12.0 17.0 0.00 0.00 0.00 41 1024.8
20190320175323 68 255 8.0 16.0 0.00 0.00 0.00 41 1024.7
20190320174256 68 237 11.0 18.0 0.00 0.00 0.00 43 1025.0
20190320173329 68 274 11.0 15.0 0.00 0.00 0.00 44 1025.1
20190320172304 67 248 7.0 16.0 0.00 0.00 0.00 46 1025.2
20190320171338 67 230 8.0 14.0 0.00 0.00 0.00 43 1025.3
20190320170517 67 232 11.0 17.0 0.00 0.00 0.00 47 1025.7
20190320170249 67 266 9.0 17.0 0.00 0.00 0.00 44 1025.5
20190320165324 66 246 6.0 17.0 0.00 0.00 0.00 44 1025.6
20190320164259 66 204 7.0 17.0 0.00 0.00 0.00 44 1025.6
20190320163339 65 187 5.0 15.0 0.00 0.00 0.00 47 1025.7
20190320162313 65 198 9.0 15.0 0.00 0.00 0.00 44 1026.0
20190320161248 65 252 12.0 16.0 0.00 0.00 0.00 44 1026.1
20190320160528 65 273 10.0 17.0 0.00 0.00 0.00 44 1026.2
20190320160302 65 285 7.0 17.0 0.00 0.00 0.00 45 1026.1
20190320155339 64 232 11.0 18.0 0.00 0.00 0.00 45 1026.2
20190320154313 64 252 10.0 15.0 0.00 0.00 0.00 48 1026.2
20190320153249 62 259 3.0 10.0 0.00 0.00 0.00 56 1026.4
20190320152327 61 205 3.0 5.0 0.00 0.00 0.00 61 1026.5
20190320151300 60 226 1.0 4.0 0.00 0.00 0.00 65 1026.5
20190320150540 60 243 2.0 3.0 0.00 0.00 0.00 65 1026.5
20190320150306 59 314 0.0 2.0 0.00 0.00 0.00 68 1026.4
20190320145321 58 166 2.0 3.0 0.00 0.00 0.00 70 1026.4
20190320144300 57 128 1.0 2.0 0.00 0.00 0.00 74 1026.3
20190320143259 55 75 1.0 2.0 0.00 0.00 0.00 81 1026.2
20190320142254 53 74 1.0 1.0 0.00 0.00 0.00 83 1026.2
20190320141251 52 74 0.0 1.0 0.00 0.00 0.00 86 1026.0
20190320140510 50 74 0.0 1.0 0.00 0.00 0.00 89 1025.9
20190320140336 50 74 0.0 1.0 0.00 0.00 0.00 90 1025.9
20190320135313 48 74 0.0 1.0 0.00 0.00 0.00 91 1025.9
20190320134252 47 74 0.0 1.0 0.00 0.00 0.00 92 1025.7
20190320133329 46 74 1.0 2.0 0.00 0.00 0.00 92 1025.7
20190320132305 46 74 0.0 1.0 0.00 0.00 0.00 93 1025.6
20190320131322 45 74 0.0 1.0 0.00 0.00 0.00 93 1025.5
20190320130501 44 74 0.0 1.0 0.00 0.00 0.00 93 1025.6
20190320130331 44 74 0.0 1.0 0.00 0.00 0.00 93 1025.6
20190320125306 44 74 0.0 0.0 0.00 0.00 0.00 93 1025.5
20190320124322 43 74 0.0 1.0 0.00 0.00 0.00 93 1025.4
20190320123301 43 74 0.0 1.0 0.00 0.00 0.00 92 1025.3
20190320122333 43 74 0.0 1.0 0.00 0.00 0.00 92 1025.2
20190320121305 43 74 1.0 2.0 0.00 0.00 0.00 92 1024.9
20190320120545 43 74 1.0 2.0 0.00 0.00 0.00 92 1024.9
20190320120312 43 73 1.0 2.0 0.00 0.00 0.00 92 1025.0
20190320115252 43 73 0.0 1.0 0.00 0.00 0.00 92 1024.8
20190320114327 43 73 1.0 2.0 0.00 0.00 0.00 91 1024.8
20190320113303 44 73 1.0 1.0 0.00 0.00 0.00 91 1024.7
20190320112322 44 73 0.0 1.0 0.00 0.00 0.00 91 1024.7
20190320111257 44 73 0.0 1.0 0.00 0.00 0.00 92 1024.6
20190320110537 44 73 0.0 1.0 0.00 0.00 0.00 92 1024.5
20190320110307 44 73 0.0 0.0 0.00 0.00 0.00 92 1024.5
20190320105323 44 73 0.0 0.0 0.00 0.00 0.00 91 1024.4
20190320104302 44 73 0.0 1.0 0.00 0.00 0.00 91 1024.4
20190320103338 44 74 0.0 2.0 0.00 0.00 0.00 91 1024.3
20190320102310 44 29 0.0 1.0 0.00 0.00 0.00 91 1023.9
20190320101251 44 29 0.0 1.0 0.00 0.00 0.00 91 1024.1
20190320100527 44 30 0.0 2.0 0.00 0.00 0.00 91 1024.1
20190320100259 44 30 1.0 2.0 0.00 0.00 0.00 91 1024.2
20190320095335 44 30 0.0 1.0 0.00 0.00 0.00 90 1024.2
20190320094309 44 30 1.0 2.0 0.00 0.00 0.00 90 1024.3
20190320093251 44 36 1.0 2.0 0.00 0.00 0.00 89 1024.4
20190320092326 45 355 1.0 2.0 0.00 0.00 0.00 88 1024.4
20190320091302 45 355 0.0 1.0 0.00 0.00 0.00 88 1024.4
20190320090540 46 33 0.0 2.0 0.00 0.00 0.00 88 1024.5
20190320090313 45 63 1.0 2.0 0.00 0.00 0.00 88 1024.4
20190320085249 46 49 1.0 3.0 0.00 0.00 0.00 86 1024.4
20190320084324 47 40 2.0 2.0 0.00 0.00 0.00 85 1024.4
20190320083306 47 45 1.0 2.0 0.00 0.00 0.00 87 1024.5
20190320082324 46 62 2.0 3.0 0.00 0.00 0.00 88 1024.6
20190320081302 45 61 1.0 4.0 0.00 0.00 0.00 88 1024.6
20190320080541 46 78 2.0 3.0 0.00 0.00 0.00 87 1024.6
20190320080311 46 53 1.0 2.0 0.00 0.00 0.00 86 1024.5